sensor_id;sensor_type;location;lat;lon;timestamp;pressure;altitude;pressure_sealevel;temperature;humidity
56420;BME280;42323;52.170;7.538;2022-08-01T00:00:12;101159.66;;;19.22;100.00
56420;BME280;42323;52.170;7.538;2022-08-01T00:02:40;101156.53;;;19.19;100.00
56420;BME280;42323;52.170;7.538;2022-08-01T00:05:08;101159.84;;;19.14;100.00
56420;BME280;42323;52.170;7.538;2022-08-01T00:07:36;101153.81;;;19.12;100.00
56420;BME280;42323;52.170;7.538;2022-08-01T00:10:03;101154.22;;;19.09;100.00
56420;BME280;42323;52.170;7.538;2022-08-01T00:12:31;101157.13;;;19.08;100.00
56420;BME280;42323;52.170;7.538;2022-08-01T00:14:57;101158.34;;;19.05;100.00
56420;BME280;42323;52.170;7.538;2022-08-01T00:17:25;101156.06;;;19.02;100.00
56420;BME280;42323;52.170;7.538;2022-08-01T00:19:52;101163.94;;;19.04;100.00
56420;BME280;42323;52.170;7.538;2022-08-01T00:22:19;101167.59;;;18.96;100.00
56420;BME280;42323;52.170;7.538;2022-08-01T00:24:46;101162.22;;;18.96;100.00
56420;BME280;42323;52.170;7.538;2022-08-01T00:27:12;101161.19;;;18.97;100.00
56420;BME280;42323;52.170;7.538;2022-08-01T00:29:39;101168.84;;;18.93;100.00
56420;BME280;42323;52.170;7.538;2022-08-01T00:32:27;101170.50;;;18.94;100.00
56420;BME280;42323;52.170;7.538;2022-08-01T00:34:56;101177.75;;;18.94;100.00
56420;BME280;42323;52.170;7.538;2022-08-01T00:37:23;101177.56;;;18.95;100.00
56420;BME280;42323;52.170;7.538;2022-08-01T00:39:50;101171.91;;;18.84;100.00
56420;BME280;42323;52.170;7.538;2022-08-01T00:42:17;101177.91;;;18.86;100.00
56420;BME280;42323;52.170;7.538;2022-08-01T00:44:43;101181.63;;;18.85;100.00
56420;BME280;42323;52.170;7.538;2022-08-01T00:47:10;101161.13;;;18.84;100.00
56420;BME280;42323;52.170;7.538;2022-08-01T00:49:37;101168.28;;;18.77;100.00
56420;BME280;42323;52.170;7.538;2022-08-01T00:52:05;101174.91;;;18.74;100.00
56420;BME280;42323;52.170;7.538;2022-08-01T00:54:32;101161.00;;;18.71;100.00
56420;BME280;42323;52.170;7.538;2022-08-01T00:56:59;101173.44;;;18.72;100.00
56420;BME280;42323;52.170;7.538;2022-08-01T00:59:26;101177.56;;;18.67;100.00
56420;BME280;42323;52.170;7.538;2022-08-01T01:01:54;101177.69;;;18.59;100.00
56420;BME280;42323;52.170;7.538;2022-08-01T01:04:22;101173.59;;;18.63;100.00
56420;BME280;42323;52.170;7.538;2022-08-01T01:09:53;101183.53;;;18.63;100.00
56420;BME280;42323;52.170;7.538;2022-08-01T01:15:09;101178.53;;;18.60;100.00
56420;BME280;42323;52.170;7.538;2022-08-01T01:17:45;101181.69;;;18.63;100.00
56420;BME280;42323;52.170;7.538;2022-08-01T01:20:18;101182.88;;;18.61;100.00
56420;BME280;42323;52.170;7.538;2022-08-01T01:31:05;101182.94;;;18.67;100.00
56420;BME280;42323;52.170;7.538;2022-08-01T01:33:37;101179.44;;;18.67;100.00
56420;BME280;42323;52.170;7.538;2022-08-01T01:36:14;101186.25;;;18.63;100.00
56420;BME280;42323;52.170;7.538;2022-08-01T01:38:45;101188.72;;;18.64;100.00
56420;BME280;42323;52.170;7.538;2022-08-01T01:41:14;101174.78;;;18.61;100.00
56420;BME280;42323;52.170;7.538;2022-08-01T01:43:43;101183.97;;;18.66;100.00
56420;BME280;42323;52.170;7.538;2022-08-01T01:46:12;101192.69;;;18.69;100.00
56420;BME280;42323;52.170;7.538;2022-08-01T01:48:39;101187.13;;;18.70;100.00
56420;BME280;42323;52.170;7.538;2022-08-01T01:51:07;101188.16;;;18.69;100.00
56420;BME280;42323;52.170;7.538;2022-08-01T01:53:35;101183.97;;;18.66;100.00
56420;BME280;42323;52.170;7.538;2022-08-01T01:56:03;101190.63;;;18.71;100.00
56420;BME280;42323;52.170;7.538;2022-08-01T01:58:33;101172.19;;;18.67;100.00
56420;BME280;42323;52.170;7.538;2022-08-01T02:01:01;101191.28;;;18.73;100.00
56420;BME280;42323;52.170;7.538;2022-08-01T02:03:31;101191.91;;;18.75;100.00
56420;BME280;42323;52.170;7.538;2022-08-01T02:05:59;101181.13;;;18.75;100.00
56420;BME280;42323;52.170;7.538;2022-08-01T02:08:29;101179.47;;;18.74;100.00
56420;BME280;42323;52.170;7.538;2022-08-01T02:10:58;101185.69;;;18.74;100.00
56420;BME280;42323;52.170;7.538;2022-08-01T02:13:57;101178.03;;;18.78;100.00
56420;BME280;42323;52.170;7.538;2022-08-01T02:16:28;101177.41;;;18.76;100.00
56420;BME280;42323;52.170;7.538;2022-08-01T02:18:55;101178.31;;;18.83;100.00
56420;BME280;42323;52.170;7.538;2022-08-01T02:21:28;101170.13;;;18.70;100.00
56420;BME280;42323;52.170;7.538;2022-08-01T02:24:03;101176.19;;;18.78;100.00
56420;BME280;42323;52.170;7.538;2022-08-01T02:26:36;101182.16;;;18.74;100.00
56420;BME280;42323;52.170;7.538;2022-08-01T02:29:07;101187.56;;;18.74;100.00
56420;BME280;42323;52.170;7.538;2022-08-01T02:31:39;101181.34;;;18.73;100.00
56420;BME280;42323;52.170;7.538;2022-08-01T02:34:10;101171.34;;;18.67;100.00
56420;BME280;42323;52.170;7.538;2022-08-01T02:36:39;101176.16;;;18.72;100.00
56420;BME280;42323;52.170;7.538;2022-08-01T02:39:09;101179.03;;;18.70;100.00
56420;BME280;42323;52.170;7.538;2022-08-01T02:41:45;101191.28;;;18.73;100.00
56420;BME280;42323;52.170;7.538;2022-08-01T02:44:18;101192.00;;;18.60;100.00
56420;BME280;42323;52.170;7.538;2022-08-01T02:46:52;101198.97;;;18.54;100.00
56420;BME280;42323;52.170;7.538;2022-08-01T02:49:21;101200.56;;;18.49;100.00
56420;BME280;42323;52.170;7.538;2022-08-01T02:51:51;101215.91;;;18.48;100.00
56420;BME280;42323;52.170;7.538;2022-08-01T02:54:21;101202.56;;;18.40;100.00
56420;BME280;42323;52.170;7.538;2022-08-01T02:56:50;101209.38;;;18.36;100.00
56420;BME280;42323;52.170;7.538;2022-08-01T02:59:21;101211.69;;;18.39;100.00
56420;BME280;42323;52.170;7.538;2022-08-01T03:01:53;101216.81;;;18.34;100.00
56420;BME280;42323;52.170;7.538;2022-08-01T03:04:23;101214.56;;;18.38;100.00
56420;BME280;42323;52.170;7.538;2022-08-01T03:06:55;101218.00;;;18.31;100.00
56420;BME280;42323;52.170;7.538;2022-08-01T03:09:29;101230.44;;;18.32;100.00
56420;BME280;42323;52.170;7.538;2022-08-01T03:12:01;101223.19;;;18.33;100.00
56420;BME280;42323;52.170;7.538;2022-08-01T03:14:34;101225.44;;;18.29;100.00
56420;BME280;42323;52.170;7.538;2022-08-01T03:17:04;101225.88;;;18.33;100.00
56420;BME280;42323;52.170;7.538;2022-08-01T03:19:33;101210.66;;;18.19;100.00
56420;BME280;42323;52.170;7.538;2022-08-01T03:22:01;101218.78;;;18.25;100.00
56420;BME280;42323;52.170;7.538;2022-08-01T03:24:33;101225.00;;;18.26;100.00
56420;BME280;42323;52.170;7.538;2022-08-01T03:27:02;101231.84;;;18.28;100.00
56420;BME280;42323;52.170;7.538;2022-08-01T03:29:31;101222.75;;;18.29;100.00
56420;BME280;42323;52.170;7.538;2022-08-01T03:32:00;101225.00;;;18.26;100.00
56420;BME280;42323;52.170;7.538;2022-08-01T03:34:28;101220.91;;;18.30;100.00
56420;BME280;42323;52.170;7.538;2022-08-01T03:37:07;101226.28;;;18.30;100.00
56420;BME280;42323;52.170;7.538;2022-08-01T03:40:06;101225.38;;;18.23;100.00
56420;BME280;42323;52.170;7.538;2022-08-01T03:42:44;101229.09;;;18.22;100.00
56420;BME280;42323;52.170;7.538;2022-08-01T03:45:20;101231.16;;;18.20;100.00
56420;BME280;42323;52.170;7.538;2022-08-01T03:47:49;101232.44;;;18.24;100.00
56420;BME280;42323;52.170;7.538;2022-08-01T03:50:20;101228.06;;;18.23;100.00
56420;BME280;42323;52.170;7.538;2022-08-01T03:52:50;101220.63;;;18.25;100.00
56420;BME280;42323;52.170;7.538;2022-08-01T03:55:20;101231.28;;;18.33;100.00
56420;BME280;42323;52.170;7.538;2022-08-01T03:57:48;101225.88;;;18.33;100.00
56420;BME280;42323;52.170;7.538;2022-08-01T04:00:16;101230.28;;;18.34;100.00
56420;BME280;42323;52.170;7.538;2022-08-01T04:02:48;101231.66;;;18.30;100.00
56420;BME280;42323;52.170;7.538;2022-08-01T04:05:16;101228.53;;;18.26;100.00
56420;BME280;42323;52.170;7.538;2022-08-01T04:07:49;101240.94;;;18.27;100.00
56420;BME280;42323;52.170;7.538;2022-08-01T04:10:23;101241.16;;;18.26;100.00
56420;BME280;42323;52.170;7.538;2022-08-01T04:12:50;101243.25;;;18.30;100.00
56420;BME280;42323;52.170;7.538;2022-08-01T04:15:18;101244.09;;;18.31;100.00
56420;BME280;42323;52.170;7.538;2022-08-01T04:17:46;101235.50;;;18.21;100.00
56420;BME280;42323;52.170;7.538;2022-08-01T04:20:13;101246.78;;;18.31;100.00
56420;BME280;42323;52.170;7.538;2022-08-01T04:22:42;101244.56;;;18.34;100.00
56420;BME280;42323;52.170;7.538;2022-08-01T04:25:14;101239.81;;;18.36;100.00
56420;BME280;42323;52.170;7.538;2022-08-01T04:27:45;101240.66;;;18.37;100.00
56420;BME280;42323;52.170;7.538;2022-08-01T04:30:28;101237.25;;;18.28;100.00
56420;BME280;42323;52.170;7.538;2022-08-01T04:33:01;101247.06;;;18.36;100.00
56420;BME280;42323;52.170;7.538;2022-08-01T04:35:29;101249.56;;;18.38;100.00
56420;BME280;42323;52.170;7.538;2022-08-01T04:38:22;101248.72;;;18.37;100.00
56420;BME280;42323;52.170;7.538;2022-08-01T04:40:51;101258.28;;;18.40;100.00
56420;BME280;42323;52.170;7.538;2022-08-01T04:43:19;101252.72;;;18.41;100.00
56420;BME280;42323;52.170;7.538;2022-08-01T04:45:47;101249.88;;;18.49;100.00
56420;BME280;42323;52.170;7.538;2022-08-01T04:48:17;101261.38;;;18.58;100.00
56420;BME280;42323;52.170;7.538;2022-08-01T04:50:48;101244.09;;;18.52;100.00
56420;BME280;42323;52.170;7.538;2022-08-01T04:53:18;101258.75;;;18.64;100.00
56420;BME280;42323;52.170;7.538;2022-08-01T04:55:45;101261.06;;;18.67;100.00
56420;BME280;42323;52.170;7.538;2022-08-01T04:58:14;101264.16;;;18.64;100.00
56420;BME280;42323;52.170;7.538;2022-08-01T05:00:45;101267.88;;;18.63;100.00
56420;BME280;42323;52.170;7.538;2022-08-01T05:03:12;101264.19;;;18.71;100.00
56420;BME280;42323;52.170;7.538;2022-08-01T05:05:38;101265.28;;;18.77;100.00
56420;BME280;42323;52.170;7.538;2022-08-01T05:08:05;101258.63;;;18.73;100.00
56420;BME280;42323;52.170;7.538;2022-08-01T05:10:33;101256.13;;;18.71;100.00
56420;BME280;42323;52.170;7.538;2022-08-01T05:12:59;101250.28;;;18.67;100.00
56420;BME280;42323;52.170;7.538;2022-08-01T05:15:26;101269.00;;;18.76;100.00
56420;BME280;42323;52.170;7.538;2022-08-01T05:17:54;101266.06;;;18.71;100.00
56420;BME280;42323;52.170;7.538;2022-08-01T05:20:20;101259.19;;;18.68;100.00
56420;BME280;42323;52.170;7.538;2022-08-01T05:22:48;101266.44;;;18.67;100.00
56420;BME280;42323;52.170;7.538;2022-08-01T05:25:14;101267.47;;;18.66;100.00
56420;BME280;42323;52.170;7.538;2022-08-01T05:27:46;101263.69;;;18.61;100.00
56420;BME280;42323;52.170;7.538;2022-08-01T05:30:17;101259.78;;;18.63;100.00
56420;BME280;42323;52.170;7.538;2022-08-01T05:32:44;101263.75;;;18.67;100.00
56420;BME280;42323;52.170;7.538;2022-08-01T05:35:12;101279.78;;;18.76;100.00
56420;BME280;42323;52.170;7.538;2022-08-01T05:37:38;101268.94;;;18.69;100.00
56420;BME280;42323;52.170;7.538;2022-08-01T05:40:06;101278.94;;;18.75;100.00
56420;BME280;42323;52.170;7.538;2022-08-01T05:42:33;101273.50;;;18.69;100.00
56420;BME280;42323;52.170;7.538;2022-08-01T05:45:00;101278.00;;;18.83;100.00
56420;BME280;42323;52.170;7.538;2022-08-01T05:47:27;101284.66;;;18.87;100.00
56420;BME280;42323;52.170;7.538;2022-08-01T05:49:53;101274.53;;;18.89;100.00
56420;BME280;42323;52.170;7.538;2022-08-01T05:52:20;101274.28;;;18.84;100.00
56420;BME280;42323;52.170;7.538;2022-08-01T05:54:47;101281.56;;;18.90;100.00
56420;BME280;42323;52.170;7.538;2022-08-01T05:57:14;101272.59;;;18.83;100.00
56420;BME280;42323;52.170;7.538;2022-08-01T05:59:41;101280.75;;;18.89;100.00
56420;BME280;42323;52.170;7.538;2022-08-01T06:02:08;101273.25;;;18.85;100.00
56420;BME280;42323;52.170;7.538;2022-08-01T06:04:36;101278.25;;;18.88;100.00
56420;BME280;42323;52.170;7.538;2022-08-01T06:07:03;101290.84;;;18.81;100.00
56420;BME280;42323;52.170;7.538;2022-08-01T06:09:30;101299.34;;;18.84;100.00
56420;BME280;42323;52.170;7.538;2022-08-01T06:11:57;101291.13;;;18.71;100.00
56420;BME280;42323;52.170;7.538;2022-08-01T06:14:24;101285.50;;;18.66;100.00
56420;BME280;42323;52.170;7.538;2022-08-01T06:16:51;101293.88;;;18.56;100.00
56420;BME280;42323;52.170;7.538;2022-08-01T06:19:18;101291.94;;;18.50;100.00
56420;BME280;42323;52.170;7.538;2022-08-01T06:21:44;101295.06;;;18.54;100.00
56420;BME280;42323;52.170;7.538;2022-08-01T06:24:13;101294.88;;;18.55;100.00
56420;BME280;42323;52.170;7.538;2022-08-01T06:26:40;101300.44;;;18.69;100.00
56420;BME280;42323;52.170;7.538;2022-08-01T06:29:07;101300.50;;;18.75;100.00
56420;BME280;42323;52.170;7.538;2022-08-01T06:31:38;101305.69;;;18.77;100.00
56420;BME280;42323;52.170;7.538;2022-08-01T06:34:05;101305.56;;;18.85;100.00
56420;BME280;42323;52.170;7.538;2022-08-01T06:36:32;101307.50;;;18.91;100.00
56420;BME280;42323;52.170;7.538;2022-08-01T06:38:58;101306.47;;;18.92;100.00
56420;BME280;42323;52.170;7.538;2022-08-01T06:41:25;101311.84;;;18.92;100.00
56420;BME280;42323;52.170;7.538;2022-08-01T06:43:52;101309.53;;;18.89;100.00
56420;BME280;42323;52.170;7.538;2022-08-01T06:46:19;101303.06;;;18.83;100.00
56420;BME280;42323;52.170;7.538;2022-08-01T06:48:48;101313.91;;;18.90;100.00
56420;BME280;42323;52.170;7.538;2022-08-01T06:51:15;101308.91;;;18.87;100.00
56420;BME280;42323;52.170;7.538;2022-08-01T06:53:44;101319.28;;;18.90;100.00
56420;BME280;42323;52.170;7.538;2022-08-01T06:56:11;101310.63;;;18.73;100.00
56420;BME280;42323;52.170;7.538;2022-08-01T06:58:38;101326.94;;;18.86;100.00
56420;BME280;42323;52.170;7.538;2022-08-01T07:01:05;101328.66;;;18.73;100.00
56420;BME280;42323;52.170;7.538;2022-08-01T07:03:34;101328.03;;;18.71;100.00
56420;BME280;42323;52.170;7.538;2022-08-01T07:06:22;101323.28;;;18.73;100.00
56420;BME280;42323;52.170;7.538;2022-08-01T07:08:49;101323.13;;;18.59;100.00
56420;BME280;42323;52.170;7.538;2022-08-01T07:11:16;101330.66;;;18.64;100.00
56420;BME280;42323;52.170;7.538;2022-08-01T07:13:43;101329.34;;;18.60;100.00
56420;BME280;42323;52.170;7.538;2022-08-01T07:16:13;101320.13;;;18.54;100.00
56420;BME280;42323;52.170;7.538;2022-08-01T07:18:41;101330.19;;;18.60;100.00
56420;BME280;42323;52.170;7.538;2022-08-01T07:21:08;101317.63;;;18.53;100.00
56420;BME280;42323;52.170;7.538;2022-08-01T07:23:55;101330.97;;;18.76;100.00
56420;BME280;42323;52.170;7.538;2022-08-01T07:26:21;101332.97;;;18.88;100.00
56420;BME280;42323;52.170;7.538;2022-08-01T07:28:48;101324.25;;;18.86;100.00
56420;BME280;42323;52.170;7.538;2022-08-01T07:31:15;101329.63;;;18.86;100.00
56420;BME280;42323;52.170;7.538;2022-08-01T07:33:42;101328.22;;;18.90;100.00
56420;BME280;42323;52.170;7.538;2022-08-01T07:36:18;101327.19;;;18.91;100.00
56420;BME280;42323;52.170;7.538;2022-08-01T07:38:45;101332.53;;;18.85;100.00
56420;BME280;42323;52.170;7.538;2022-08-01T07:41:13;101331.94;;;18.89;100.00
56420;BME280;42323;52.170;7.538;2022-08-01T07:43:39;101335.97;;;19.00;100.00
56420;BME280;42323;52.170;7.538;2022-08-01T07:46:16;101332.72;;;19.05;100.00
56420;BME280;42323;52.170;7.538;2022-08-01T07:48:43;101331.19;;;19.23;100.00
56420;BME280;42323;52.170;7.538;2022-08-01T07:51:09;101342.19;;;19.50;100.00
56420;BME280;42323;52.170;7.538;2022-08-01T07:53:36;101337.38;;;19.73;100.00
56420;BME280;42323;52.170;7.538;2022-08-01T07:56:04;101329.78;;;19.90;100.00
56420;BME280;42323;52.170;7.538;2022-08-01T07:58:34;101332.16;;;20.06;100.00
56420;BME280;42323;52.170;7.538;2022-08-01T08:01:02;101327.44;;;20.22;100.00
56420;BME280;42323;52.170;7.538;2022-08-01T08:03:28;101319.16;;;20.30;100.00
56420;BME280;42323;52.170;7.538;2022-08-01T08:05:56;101333.50;;;20.30;100.00
56420;BME280;42323;52.170;7.538;2022-08-01T08:08:26;101327.47;;;20.28;100.00
56420;BME280;42323;52.170;7.538;2022-08-01T08:10:54;101330.97;;;20.22;100.00
56420;BME280;42323;52.170;7.538;2022-08-01T08:13:21;101331.59;;;20.24;100.00
56420;BME280;42323;52.170;7.538;2022-08-01T08:15:48;101331.78;;;20.16;100.00
56420;BME280;42323;52.170;7.538;2022-08-01T08:18:15;101328.84;;;20.11;100.00
56420;BME280;42323;52.170;7.538;2022-08-01T08:20:43;101334.25;;;20.11;100.00
56420;BME280;42323;52.170;7.538;2022-08-01T08:23:10;101329.25;;;20.08;100.00
56420;BME280;42323;52.170;7.538;2022-08-01T08:26:09;101328.00;;;20.04;100.00
56420;BME280;42323;52.170;7.538;2022-08-01T08:28:36;101330.25;;;20.00;100.00
56420;BME280;42323;52.170;7.538;2022-08-01T08:31:03;101329.00;;;19.96;100.00
56420;BME280;42323;52.170;7.538;2022-08-01T08:33:30;101340.00;;;19.95;100.00
56420;BME280;42323;52.170;7.538;2022-08-01T08:35:56;101341.25;;;19.99;100.00
56420;BME280;42323;52.170;7.538;2022-08-01T08:38:23;101331.94;;;20.01;100.00
56420;BME280;42323;52.170;7.538;2022-08-01T08:40:56;101328.44;;;20.14;100.00
56420;BME280;42323;52.170;7.538;2022-08-01T08:43:25;101334.53;;;20.29;100.00
56420;BME280;42323;52.170;7.538;2022-08-01T08:45:53;101326.50;;;20.42;100.00
56420;BME280;42323;52.170;7.538;2022-08-01T08:48:27;101334.88;;;20.67;100.00
56420;BME280;42323;52.170;7.538;2022-08-01T08:50:55;101335.13;;;20.92;100.00
56420;BME280;42323;52.170;7.538;2022-08-01T08:53:23;101325.38;;;21.11;100.00
56420;BME280;42323;52.170;7.538;2022-08-01T08:56:00;101333.66;;;21.03;100.00
56420;BME280;42323;52.170;7.538;2022-08-01T08:58:28;101338.25;;;20.89;100.00
56420;BME280;42323;52.170;7.538;2022-08-01T09:00:57;101342.38;;;20.78;100.00
56420;BME280;42323;52.170;7.538;2022-08-01T09:03:25;101351.94;;;20.68;100.00
56420;BME280;42323;52.170;7.538;2022-08-01T09:05:52;101358.53;;;20.52;100.00
56420;BME280;42323;52.170;7.538;2022-08-01T09:08:19;101357.78;;;20.30;100.00
56420;BME280;42323;52.170;7.538;2022-08-01T09:10:47;101346.28;;;20.08;100.00
56420;BME280;42323;52.170;7.538;2022-08-01T09:13:15;101351.44;;;19.97;100.00
56420;BME280;42323;52.170;7.538;2022-08-01T09:15:49;101358.72;;;20.03;100.00
56420;BME280;42323;52.170;7.538;2022-08-01T09:18:29;101368.28;;;20.05;100.00
56420;BME280;42323;52.170;7.538;2022-08-01T09:21:22;101369.84;;;20.28;100.00
56420;BME280;42323;52.170;7.538;2022-08-01T09:23:52;101362.38;;;20.30;100.00
56420;BME280;42323;52.170;7.538;2022-08-01T09:26:28;101355.63;;;20.54;100.00
56420;BME280;42323;52.170;7.538;2022-08-01T09:28:58;101362.31;;;20.71;100.00
56420;BME280;42323;52.170;7.538;2022-08-01T09:31:27;101365.69;;;20.86;100.00
56420;BME280;42323;52.170;7.538;2022-08-01T09:34:05;101359.44;;;20.92;100.00
56420;BME280;42323;52.170;7.538;2022-08-01T09:39:35;101370.69;;;20.96;100.00
56420;BME280;42323;52.170;7.538;2022-08-01T09:42:24;101378.97;;;20.81;100.00
56420;BME280;42323;52.170;7.538;2022-08-01T09:44:56;101381.44;;;20.76;100.00
56420;BME280;42323;52.170;7.538;2022-08-01T09:47:38;101385.41;;;20.80;100.00
56420;BME280;42323;52.170;7.538;2022-08-01T09:50:06;101400.22;;;21.04;100.00
56420;BME280;42323;52.170;7.538;2022-08-01T09:52:37;101380.91;;;21.27;100.00
56420;BME280;42323;52.170;7.538;2022-08-01T09:55:10;101359.28;;;21.47;100.00
56420;BME280;42323;52.170;7.538;2022-08-01T09:57:38;101366.13;;;21.69;100.00
56420;BME280;42323;52.170;7.538;2022-08-01T10:00:17;101371.91;;;22.06;100.00
56420;BME280;42323;52.170;7.538;2022-08-01T10:03:21;101354.38;;;22.08;100.00
56420;BME280;42323;52.170;7.538;2022-08-01T10:05:49;101363.53;;;22.20;100.00
56420;BME280;42323;52.170;7.538;2022-08-01T10:08:17;101358.94;;;22.14;100.00
56420;BME280;42323;52.170;7.538;2022-08-01T10:11:09;101360.63;;;22.09;100.00
56420;BME280;42323;52.170;7.538;2022-08-01T10:13:38;101358.31;;;22.12;100.00
56420;BME280;42323;52.170;7.538;2022-08-01T10:16:07;101357.69;;;22.17;100.00
56420;BME280;42323;52.170;7.538;2022-08-01T10:18:34;101347.78;;;21.84;100.00
56420;BME280;42323;52.170;7.538;2022-08-01T10:21:05;101365.66;;;21.92;100.00
56420;BME280;42323;52.170;7.538;2022-08-01T10:23:37;101359.22;;;21.86;100.00
56420;BME280;42323;52.170;7.538;2022-08-01T10:26:07;101356.50;;;21.86;100.00
56420;BME280;42323;52.170;7.538;2022-08-01T10:28:52;101357.31;;;22.00;100.00
56420;BME280;42323;52.170;7.538;2022-08-01T10:31:20;101352.72;;;22.07;100.00
56420;BME280;42323;52.170;7.538;2022-08-01T10:33:57;101359.41;;;22.05;100.00
56420;BME280;42323;52.170;7.538;2022-08-01T10:36:27;101356.47;;;21.99;100.00
56420;BME280;42323;52.170;7.538;2022-08-01T10:38:55;101351.31;;;21.85;100.00
56420;BME280;42323;52.170;7.538;2022-08-01T10:41:24;101363.34;;;22.02;100.00
56420;BME280;42323;52.170;7.538;2022-08-01T10:43:53;101351.13;;;21.80;100.00
56420;BME280;42323;52.170;7.538;2022-08-01T10:46:20;101358.56;;;22.04;100.00
56420;BME280;42323;52.170;7.538;2022-08-01T10:49:02;101364.59;;;21.93;100.00
56420;BME280;42323;52.170;7.538;2022-08-01T10:51:31;101375.66;;;21.85;100.00
56420;BME280;42323;52.170;7.538;2022-08-01T10:54:24;101371.53;;;21.76;100.00
56420;BME280;42323;52.170;7.538;2022-08-01T10:56:52;101369.03;;;21.67;100.00
56420;BME280;42323;52.170;7.538;2022-08-01T10:59:25;101362.84;;;21.54;100.00
56420;BME280;42323;52.170;7.538;2022-08-01T11:02:25;101360.69;;;21.69;100.00
56420;BME280;42323;52.170;7.538;2022-08-01T11:05:01;101356.53;;;21.80;100.00
56420;BME280;42323;52.170;7.538;2022-08-01T11:07:48;101357.72;;;22.04;100.00
56420;BME280;42323;52.170;7.538;2022-08-01T11:10:22;101358.16;;;22.07;100.00
56420;BME280;42323;52.170;7.538;2022-08-01T11:12:51;101365.69;;;22.50;100.00
56420;BME280;42323;52.170;7.538;2022-08-01T11:15:21;101362.03;;;22.69;100.00
56420;BME280;42323;52.170;7.538;2022-08-01T11:17:57;101361.50;;;22.85;100.00
56420;BME280;42323;52.170;7.538;2022-08-01T11:20:29;101351.56;;;22.73;100.00
56420;BME280;42323;52.170;7.538;2022-08-01T11:28:27;101347.03;;;23.73;100.00
56420;BME280;42323;52.170;7.538;2022-08-01T11:38:43;101346.06;;;25.12;100.00
56420;BME280;42323;52.170;7.538;2022-08-01T11:47:03;101339.81;;;25.70;95.82
56420;BME280;42323;52.170;7.538;2022-08-01T11:54:54;101339.19;;;26.32;96.10
56420;BME280;42323;52.170;7.538;2022-08-01T11:57:26;101338.75;;;26.23;94.59
56420;BME280;42323;52.170;7.538;2022-08-01T12:00:03;101344.16;;;25.94;92.47
56420;BME280;42323;52.170;7.538;2022-08-01T12:02:35;101341.91;;;26.03;95.63
56420;BME280;42323;52.170;7.538;2022-08-01T12:05:09;101345.13;;;25.88;94.96
56420;BME280;42323;52.170;7.538;2022-08-01T12:07:41;101346.97;;;26.11;95.36
56420;BME280;42323;52.170;7.538;2022-08-01T12:10:16;101342.81;;;26.77;93.68
56420;BME280;42323;52.170;7.538;2022-08-01T12:12:51;101346.28;;;26.90;92.06
56420;BME280;42323;52.170;7.538;2022-08-01T12:15:20;101347.50;;;26.25;90.89
56420;BME280;42323;52.170;7.538;2022-08-01T12:17:55;101333.22;;;26.75;89.78
56420;BME280;42323;52.170;7.538;2022-08-01T12:20:41;101341.16;;;26.76;87.48
56420;BME280;42323;52.170;7.538;2022-08-01T12:23:30;101346.25;;;26.56;87.20
56420;BME280;42323;52.170;7.538;2022-08-01T12:25:58;101346.19;;;25.76;94.19
56420;BME280;42323;52.170;7.538;2022-08-01T12:28:29;101346.09;;;25.71;96.96
56420;BME280;42323;52.170;7.538;2022-08-01T12:30:57;101352.53;;;24.99;98.81
56420;BME280;42323;52.170;7.538;2022-08-01T12:33:24;101351.13;;;25.09;100.00
56420;BME280;42323;52.170;7.538;2022-08-01T12:35:52;101349.59;;;25.94;96.05
56420;BME280;42323;52.170;7.538;2022-08-01T12:38:21;101349.25;;;26.43;96.60
56420;BME280;42323;52.170;7.538;2022-08-01T12:40:54;101347.13;;;26.73;91.77
56420;BME280;42323;52.170;7.538;2022-08-01T12:43:22;101346.41;;;27.11;90.39
56420;BME280;42323;52.170;7.538;2022-08-01T12:45:57;101354.59;;;27.11;89.47
56420;BME280;42323;52.170;7.538;2022-08-01T12:48:25;101353.03;;;27.49;85.72
56420;BME280;42323;52.170;7.538;2022-08-01T12:50:53;101362.44;;;27.75;83.65
56420;BME280;42323;52.170;7.538;2022-08-01T12:53:24;101352.66;;;28.45;77.35
56420;BME280;42323;52.170;7.538;2022-08-01T12:55:54;101347.31;;;28.55;75.99
56420;BME280;42323;52.170;7.538;2022-08-01T12:58:34;101346.03;;;27.75;80.89
56420;BME280;42323;52.170;7.538;2022-08-01T13:01:06;101351.13;;;27.33;82.40
56420;BME280;42323;52.170;7.538;2022-08-01T13:03:34;101351.91;;;26.83;86.09
56420;BME280;42323;52.170;7.538;2022-08-01T13:06:10;101361.28;;;26.59;89.52
56420;BME280;42323;52.170;7.538;2022-08-01T13:08:37;101356.84;;;26.69;89.42
56420;BME280;42323;52.170;7.538;2022-08-01T13:11:10;101353.94;;;27.04;83.61
56420;BME280;42323;52.170;7.538;2022-08-01T13:13:45;101352.50;;;26.85;88.39
56420;BME280;42323;52.170;7.538;2022-08-01T13:16:18;101359.03;;;26.84;90.88
56420;BME280;42323;52.170;7.538;2022-08-01T13:19:04;101362.75;;;26.49;89.76
56420;BME280;42323;52.170;7.538;2022-08-01T13:21:33;101367.00;;;26.05;91.19
56420;BME280;42323;52.170;7.538;2022-08-01T13:24:29;101352.38;;;26.23;92.33
56420;BME280;42323;52.170;7.538;2022-08-01T13:27:02;101361.44;;;26.52;89.84
56420;BME280;42323;52.170;7.538;2022-08-01T13:29:34;101359.34;;;26.42;91.60
56420;BME280;42323;52.170;7.538;2022-08-01T13:32:18;101359.56;;;27.31;86.00
56420;BME280;42323;52.170;7.538;2022-08-01T13:35:04;101358.78;;;28.08;79.36
56420;BME280;42323;52.170;7.538;2022-08-01T13:37:32;101349.72;;;29.05;74.94
56420;BME280;42323;52.170;7.538;2022-08-01T13:39:59;101353.78;;;29.67;70.07